LYBE/BEG METAR and TAF weather

Enter ICAO airport designator
Station Type Date Time Source
LYBE METAR 2020/05/30 04:30 UTC NOAA

LYBE 300430Z 27009KT 9999 SCT004 12/12 Q1017 NOSIG


Station Type Date Time Source
LYBE Decoded METAR 2020/05/30 04:30 UTC NOAA

Beograd / Surcin, Serbia and Montenegro (LYBE) 44-49N 020-17E 99M
May 30, 2020 - 12:30 AM EDT / 2020.05.30 0430 UTC
Wind: from the W (270 degrees) at 10 MPH (9 KT):0
Visibility: greater than 7 mile(s):0
Sky conditions: partly cloudy
Temperature: 53 F (12 C)
Dew Point: 53 F (12 C)
Relative Humidity: 100%
Pressure (altimeter): 30.03 in. Hg (1017 hPa)
ob: LYBE 300430Z 27009KT 9999 SCT004 12/12 Q1017 NOSIG
cycle: 4

Station Type Date Time Source
LYBE TAF 2020/05/30 04:21 UTC NOAA

TAF
AMD LYBE 300315Z 3004/3024 26006KT 9999 SCT040 TX19/3013Z TN10/3003Z
TEMPO 3004/3006 3000 BR BKN005
TEMPO 3009/3015 30016KT 5000 SHRA SCT030TCU BKN033

Example: see airport list